Time;durP1;ratioP1;P1;durP2;ratioP2;P2;SDS_P1;SDS_P2;PMS_P1;PMS_P2;Temp;Humidity;BMP_temperature;BMP_pressure;BME280_temperature;BME280_humidity;BME280_pressure;Samples;Min_cycle;Max_cycle;Signal;HPM_P1;HPM_P2
2021/08/07 00:00:48;;;;;;;7.00;3.73;;;;;;;14.86;100.00;59761.72;5063174;28;20081;-65
2021/08/07 00:03:14;;;;;;;7.00;3.70;;;;;;;14.88;100.00;58098.38;5063306;28;20686;-65
2021/08/07 00:05:40;;;;;;;9.17;4.00;;;;;;;14.96;100.00;59105.53;5063554;28;20044;-66
2021/08/07 00:08:05;;;;;;;6.17;3.80;;;;;;;14.97;100.00;55777.75;5063070;28;20036;-65
2021/08/07 00:10:31;;;;;;;7.53;3.70;;;;;;;14.97;100.00;54779.25;5063892;28;20469;-66
2021/08/07 00:12:57;;;;;;;7.97;3.73;;;;;;;14.95;100.00;55776.28;5063335;28;20032;-66
2021/08/07 00:15:23;;;;;;;15.33;3.90;;;;;;;14.99;100.00;56778.06;5063261;28;20033;-66
2021/08/07 00:17:49;;;;;;;8.33;4.17;;;;;;;14.96;100.00;58772.53;5062523;28;20035;-66
2021/08/07 00:20:14;;;;;;;6.03;3.60;;;;;;;14.97;100.00;58773.56;5063480;28;20048;-66
2021/08/07 00:22:39;;;;;;;7.40;4.10;;;;;;;14.98;100.00;59773.78;5063960;28;20428;-66
2021/08/07 00:25:06;;;;;;;6.90;3.93;;;;;;;14.98;100.00;60773.28;5063004;28;20089;-66
2021/08/07 00:27:31;;;;;;;7.17;4.23;;;;;;;14.97;100.00;62105.31;5063791;28;20032;-65
2021/08/07 00:29:57;;;;;;;8.83;4.10;;;;;;;14.94;100.00;63102.16;5063089;28;20039;-65
2021/08/07 00:32:22;;;;;;;8.37;4.27;;;;;;;14.99;100.00;64107.63;5069585;28;20036;-66
2021/08/07 00:34:48;;;;;;;9.57;4.30;;;;;;;15.00;100.00;64442.31;5062497;28;20032;-66
2021/08/07 00:37:14;;;;;;;10.13;4.37;;;;;;;15.02;100.00;63110.44;5063236;28;20128;-66
2021/08/07 00:39:39;;;;;;;8.63;4.03;;;;;;;15.00;100.00;64442.88;5062994;28;20414;-66
2021/08/07 00:42:05;;;;;;;8.00;3.93;;;;;;;15.02;100.00;64778.19;5062970;28;20520;-66
2021/08/07 00:44:30;;;;;;;9.63;4.10;;;;;;;15.07;100.00;65785.53;5061839;28;20059;-66
2021/08/07 00:46:56;;;;;;;10.23;4.23;;;;;;;15.03;100.00;65780.38;5062808;28;20028;-66
2021/08/07 00:49:22;;;;;;;9.90;4.13;;;;;;;15.00;100.00;65109.53;5061589;28;20090;-66
2021/08/07 00:51:49;;;;;;;8.13;4.23;;;;;;;15.02;100.00;66447.31;5062945;28;20431;-66
2021/08/07 00:54:14;;;;;;;9.00;4.57;;;;;;;15.00;100.00;67445.88;5062618;28;20040;-66
2021/08/07 00:56:40;;;;;;;9.23;4.27;;;;;;;14.96;100.00;66774.13;5063470;28;20370;-66
2021/08/07 00:59:05;;;;;;;12.53;4.40;;;;;;;14.92;100.00;66769.44;5062441;28;20453;-66
2021/08/07 01:01:42;;;;;;;11.20;4.50;;;;;;;14.92;100.00;69440.66;5062842;28;20423;-66
2021/08/07 01:04:16;;;;;;;8.03;4.40;;;;;;;14.86;100.00;70435.50;5062814;28;20045;-66
2021/08/07 01:07:03;;;;;;;9.13;4.87;;;;;;;14.80;100.00;71430.47;5062526;28;20044;-66
2021/08/07 01:09:42;;;;;;;13.77;5.07;;;;;;;14.71;100.00;71419.25;5062768;28;20036;-66
2021/08/07 01:12:53;;;;;;;8.87;4.50;;;;;;;14.66;100.00;71413.66;5062698;28;20028;-66
2021/08/07 01:15:23;;;;;;;13.93;4.97;;;;;;;14.59;100.00;73076.19;5058359;28;20028;-66
2021/08/07 01:17:51;;;;;;;14.20;5.30;;;;;;;14.58;100.00;75415.16;5062252;28;20696;-66
2021/08/07 01:20:32;;;;;;;11.77;4.90;;;;;;;14.57;100.00;77085.72;5061894;28;20032;-66
2021/08/07 01:23:41;;;;;;;14.50;5.60;;;;;;;14.54;100.00;78085.56;5059441;28;20121;-66
2021/08/07 01:26:33;;;;;;;12.73;5.27;;;;;;;14.55;100.00;79760.69;5016736;28;20037;-66
2021/08/07 01:29:00;;;;;;;13.25;6.30;;;;;;;14.56;100.00;80766.75;5062410;28;20076;-66
2021/08/07 01:31:26;;;;;;;13.33;5.70;;;;;;;14.56;100.00;81102.41;5062718;28;20032;-66
2021/08/07 01:33:53;;;;;;;12.53;6.33;;;;;;;14.57;100.00;81438.09;5062270;28;20032;-66
2021/08/07 01:36:19;;;;;;;12.07;6.37;;;;;;;14.58;100.00;83115.72;5062241;28;20020;-66
2021/08/07 01:38:45;;;;;;;13.73;6.20;;;;;;;14.54;100.00;82774.81;5062229;28;20058;-66
2021/08/07 01:41:20;;;;;;;11.73;6.40;;;;;;;14.47;100.00;82764.75;5062349;28;20021;-66
2021/08/07 01:43:46;;;;;;;16.03;6.57;;;;;;;14.46;100.00;84439.13;5061957;28;20107;-66
2021/08/07 01:46:14;;;;;;;11.30;6.17;;;;;;;14.46;100.00;85445.00;5061450;28;20093;-66
2021/08/07 01:49:08;;;;;;;13.73;6.53;;;;;;;14.42;100.00;86109.78;5061948;28;20583;-66
2021/08/07 01:51:44;;;;;;;12.47;6.80;;;;;;;14.41;100.00;87113.78;5062745;28;20017;-65
2021/08/07 01:54:11;;;;;;;15.83;6.80;;;;;;;14.40;100.00;87784.03;5062073;28;20036;-66
2021/08/07 01:56:43;;;;;;;15.97;7.27;;;;;;;14.38;100.00;88452.13;5061777;28;20032;-66
2021/08/07 01:59:13;;;;;;;14.20;6.63;;;;;;;14.36;100.00;89120.28;5054120;28;20538;-66
2021/08/07 02:01:40;;;;;;;16.53;6.47;;;;;;;14.35;100.00;90125.81;5062284;28;20024;-65
2021/08/07 02:04:06;;;;;;;14.87;7.07;;;;;;;14.29;100.00;90116.44;5061720;28;20040;-66
2021/08/07 02:06:34;;;;;;;11.50;6.60;;;;;;;14.27;100.00;90449.03;5062398;28;20028;-66
2021/08/07 02:09:01;;;;;;;18.60;7.40;;;;;;;14.26;100.00;90447.47;5062034;28;20037;-66
2021/08/07 02:11:27;;;;;;;15.90;7.10;;;;;;;14.27;100.00;91456.34;5062653;28;20021;-66
2021/08/07 02:13:54;;;;;;;14.87;6.53;;;;;;;14.28;100.00;92129.63;5062139;28;20093;-66
2021/08/07 02:16:21;;;;;;;16.47;7.23;;;;;;;14.29;100.00;93475.09;5061809;28;20670;-66
2021/08/07 02:18:47;;;;;;;14.97;6.80;;;;;;;14.34;100.00;94491.50;5061179;28;20028;-66
2021/08/07 02:21:15;;;;;;;19.43;7.77;;;;;;;14.33;100.00;95162.25;5062336;28;20040;-66
2021/08/07 02:23:41;;;;;;;17.33;7.10;;;;;;;14.37;100.00;95505.06;5066967;28;20032;-66
2021/08/07 02:26:10;;;;;;;14.50;7.50;;;;;;;14.40;100.00;96181.81;5062000;28;20070;-65
2021/08/07 02:28:36;;;;;;;16.83;7.23;;;;;;;14.45;100.00;97200.31;5061747;28;20029;-66
2021/08/07 02:31:02;;;;;;;13.93;7.27;;;;;;;14.49;100.00;97543.53;5062112;28;20025;-65
2021/08/07 02:33:29;;;;;;;20.43;7.00;;;;;;;14.49;100.00;97543.53;5063620;28;20129;-66
2021/08/07 02:35:56;;;;;;;14.10;6.77;;;;;;;14.51;100.00;97210.38;5065641;28;20029;-66
2021/08/07 02:38:23;;;;;;;16.53;7.03;;;;;;;14.56;100.00;97217.94;5065147;28;20100;-66
2021/08/07 02:40:49;;;;;;;14.13;7.30;;;;;;;14.58;100.00;96884.78;5065728;28;20021;-66
2021/08/07 02:43:16;;;;;;;14.40;7.60;;;;;;;14.58;100.00;96212.63;5064975;28;20119;-66
2021/08/07 02:45:43;;;;;;;14.10;6.73;;;;;;;14.61;100.00;95543.91;5060340;28;20032;-66
2021/08/07 02:48:10;;;;;;;13.47;6.67;;;;;;;14.64;100.00;95213.28;5064220;28;20021;-65
2021/08/07 02:50:36;;;;;;;11.43;6.37;;;;;;;14.67;100.00;93871.25;5065378;28;20036;-65
2021/08/07 02:53:02;;;;;;;12.30;6.83;;;;;;;14.69;100.00;92193.50;5064589;28;20424;-65
2021/08/07 02:55:28;;;;;;;16.13;7.23;;;;;;;14.64;100.00;91178.94;5064674;28;20024;-66
2021/08/07 02:57:54;;;;;;;12.77;6.97;;;;;;;14.60;100.00;90164.88;5065744;28;20378;-66
2021/08/07 03:00:20;;;;;;;15.47;7.17;;;;;;;14.58;100.00;89154.28;5064722;28;20036;-66
2021/08/07 03:02:45;;;;;;;14.77;6.87;;;;;;;14.59;100.00;89155.06;5065373;28;20024;-66
2021/08/07 03:05:11;;;;;;;15.60;6.90;;;;;;;14.53;100.00;88810.81;5064616;28;20041;-65
2021/08/07 03:07:37;;;;;;;12.57;6.50;;;;;;;14.51;100.00;88807.00;5065237;28;20029;-65
2021/08/07 03:10:08;;;;;;;12.27;5.83;;;;;;;14.50;100.00;88470.53;5064692;28;20065;-66
2021/08/07 03:12:35;;;;;;;11.23;6.17;;;;;;;14.49;100.00;88804.69;5065128;28;20024;-66
2021/08/07 03:15:00;;;;;;;14.40;6.40;;;;;;;14.49;100.00;88803.91;5064971;28;20754;-66
2021/08/07 03:17:26;;;;;;;13.03;6.43;;;;;;;14.47;100.00;89473.03;5064917;28;20032;-65
2021/08/07 03:19:51;;;;;;;23.33;6.70;;;;;;;14.45;100.00;89469.94;5064383;28;20025;-66
2021/08/07 03:22:17;;;;;;;16.33;6.73;;;;;;;14.44;100.00;90139.91;5063621;28;20028;-66
2021/08/07 03:24:44;;;;;;;13.17;6.40;;;;;;;14.44;100.00;90810.72;5062231;28;20031;-66
2021/08/07 03:27:09;;;;;;;15.50;6.67;;;;;;;14.47;100.00;90816.25;5064336;28;20017;-65
2021/08/07 03:29:35;;;;;;;13.43;6.33;;;;;;;14.53;100.00;89817.31;5064099;28;20032;-65
2021/08/07 03:32:00;;;;;;;13.67;6.67;;;;;;;14.60;100.00;88485.13;5064492;28;20029;-65
2021/08/07 03:34:26;;;;;;;13.10;6.57;;;;;;;14.64;100.00;86477.41;5064474;28;20035;-65
2021/08/07 03:36:51;;;;;;;15.13;6.60;;;;;;;14.65;100.00;84802.31;5064404;28;20032;-66
2021/08/07 03:39:17;;;;;;;11.93;6.30;;;;;;;14.68;100.00;83799.97;5064552;28;20024;-65
2021/08/07 03:41:43;;;;;;;12.10;6.47;;;;;;;14.74;100.00;81796.53;5063781;28;20028;-65
2021/08/07 03:44:08;;;;;;;12.77;6.23;;;;;;;14.77;100.00;80795.47;5063487;28;20511;-65
2021/08/07 03:46:33;;;;;;;15.83;6.20;;;;;;;14.79;100.00;77784.03;5064684;28;20074;-65
2021/08/07 03:48:59;;;;;;;14.40;5.77;;;;;;;14.81;100.00;75109.50;5063765;28;20686;-65
2021/08/07 03:51:25;;;;;;;13.30;6.40;;;;;;;14.82;100.00;72769.91;5064140;28;20086;-65
2021/08/07 03:53:50;;;;;;;11.53;5.20;;;;;;;14.85;100.00;72439.41;5063984;28;20100;-66
2021/08/07 03:56:16;;;;;;;10.70;5.77;;;;;;;14.83;100.00;75112.09;5064415;28;20025;-65
2021/08/07 03:58:41;;;;;;;10.53;5.97;;;;;;;14.82;100.00;76449.19;5063941;28;20481;-66
2021/08/07 04:01:07;;;;;;;12.30;5.47;;;;;;;14.85;100.00;78796.69;5063899;28;20032;-66
2021/08/07 04:03:32;;;;;;;10.80;5.20;;;;;;;14.81;100.00;82141.69;5063621;28;20020;-66
2021/08/07 04:05:58;;;;;;;11.27;5.23;;;;;;;14.81;100.00;84153.53;5063933;28;20028;-65
2021/08/07 04:08:23;;;;;;;8.97;4.90;;;;;;;14.82;100.00;86839.31;5063805;28;20477;-65
2021/08/07 04:10:49;;;;;;;9.00;5.03;;;;;;;14.79;100.00;86499.16;5063313;28;20105;-66
2021/08/07 04:13:14;;;;;;;9.97;5.27;;;;;;;14.77;100.00;85154.69;5063628;28;20063;-65
2021/08/07 04:15:40;;;;;;;11.30;5.40;;;;;;;14.77;100.00;85825.72;5063902;28;20075;-65
2021/08/07 04:18:06;;;;;;;11.23;5.00;;;;;;;14.76;100.00;87837.31;5063314;28;20408;-65
2021/08/07 04:20:31;;;;;;;9.60;5.80;;;;;;;14.78;100.00;89183.63;5063619;28;20032;-65
2021/08/07 04:22:57;;;;;;;10.40;5.40;;;;;;;14.82;100.00;89861.69;5059716;28;20725;-65
2021/08/07 04:25:22;;;;;;;11.10;5.77;;;;;;;14.81;100.00;88180.72;5063142;28;20031;-65
2021/08/07 04:27:48;;;;;;;14.37;6.13;;;;;;;14.82;100.00;84490.41;5063120;28;20109;-65
2021/08/07 04:30:13;;;;;;;9.97;5.40;;;;;;;14.84;100.00;82817.19;5063505;28;20435;-65
2021/08/07 04:32:39;;;;;;;10.80;5.80;;;;;;;14.81;100.00;80131.03;5069238;28;20046;-65
2021/08/07 04:35:05;;;;;;;10.43;5.33;;;;;;;14.82;100.00;79127.50;5063096;28;20043;-65
2021/08/07 04:37:31;;;;;;;9.00;5.33;;;;;;;14.81;100.00;80801.81;5062968;28;20025;-65
2021/08/07 04:39:56;;;;;;;12.63;5.10;;;;;;;14.82;100.00;80802.50;5063187;28;20031;-66
2021/08/07 04:42:22;;;;;;;11.70;5.50;;;;;;;14.87;100.00;81815.00;5062763;28;20500;-66
2021/08/07 04:44:48;;;;;;;12.60;6.00;;;;;;;14.92;100.00;84169.59;5062988;28;20028;-65
2021/08/07 04:47:13;;;;;;;14.93;5.90;;;;;;;14.97;100.00;85854.00;5062606;28;20020;-65
2021/08/07 04:49:42;;;;;;;10.77;5.40;;;;;;;14.97;100.00;85518.38;5062972;28;20159;-67
2021/08/07 04:52:07;;;;;;;13.23;5.40;;;;;;;15.02;100.00;85525.78;5062476;28;20040;-67
2021/08/07 04:54:33;;;;;;;9.73;5.07;;;;;;;15.03;100.00;83514.66;5062707;28;20028;-67
2021/08/07 04:56:58;;;;;;;11.60;5.23;;;;;;;15.05;100.00;81169.31;5062621;28;20031;-67
2021/08/07 04:59:24;;;;;;;8.67;5.20;;;;;;;15.10;100.00;78830.25;5063123;28;20039;-67
2021/08/07 05:01:49;;;;;;;8.80;4.20;;;;;;;15.20;100.00;78173.81;5062435;28;20496;-67
2021/08/07 05:04:15;;;;;;;9.73;4.53;;;;;;;15.23;100.00;75834.00;5062339;28;20053;-67
2021/08/07 05:06:44;;;;;;;10.47;4.53;;;;;;;15.27;100.00;71487.78;5062979;28;20059;-67
2021/08/07 05:09:10;;;;;;;9.67;4.73;;;;;;;15.35;100.00;71832.84;5062606;28;20090;-67
2021/08/07 05:11:36;;;;;;;11.93;4.50;;;;;;;15.37;100.00;71834.72;5062927;28;20036;-67
2021/08/07 05:14:09;;;;;;;7.47;4.53;;;;;;;15.32;100.00;69154.28;5062129;28;20032;-67
2021/08/07 05:16:34;;;;;;;7.63;4.30;;;;;;;15.24;100.00;67140.19;5062733;28;20037;-67
2021/08/07 05:19:00;;;;;;;9.60;4.10;;;;;;;15.25;100.00;69480.63;5061748;28;20025;-67
2021/08/07 05:21:25;;;;;;;10.67;4.60;;;;;;;15.24;100.00;72488.63;5062627;28;20613;-67
2021/08/07 05:23:51;;;;;;;8.73;4.70;;;;;;;15.29;100.00;74502.09;5058892;28;20055;-67
2021/08/07 05:26:20;;;;;;;7.37;4.23;;;;;;;15.25;100.00;73493.56;5062301;28;20021;-67
2021/08/07 05:28:45;;;;;;;8.77;4.70;;;;;;;15.21;100.00;72819.38;5062397;28;20491;-67
2021/08/07 05:31:11;;;;;;;8.57;4.57;;;;;;;15.20;100.00;72818.09;5062256;28;20099;-67
2021/08/07 05:33:37;;;;;;;9.90;4.53;;;;;;;15.24;100.00;71819.69;5061924;28;20020;-67
2021/08/07 05:36:06;;;;;;;13.73;4.33;;;;;;;15.25;100.00;71820.31;5061991;28;20060;-67
2021/08/07 05:38:31;;;;;;;10.67;4.70;;;;;;;15.24;100.00;72488.63;5062236;28;20548;-67
2021/08/07 05:40:57;;;;;;;9.23;4.23;;;;;;;15.29;100.00;73497.44;5062653;28;20035;-67
2021/08/07 05:43:23;;;;;;;12.33;4.97;;;;;;;15.24;100.00;75500.50;5061620;28;20032;-66
2021/08/07 05:45:48;;;;;;;9.47;4.53;;;;;;;15.21;100.00;76501.06;5062600;28;20028;-66
2021/08/07 05:48:14;;;;;;;9.60;4.77;;;;;;;15.23;100.00;78178.56;5061755;28;20086;-66
2021/08/07 05:50:39;;;;;;;9.40;5.50;;;;;;;15.24;100.00;77844.88;5062688;28;20094;-66
2021/08/07 05:53:05;;;;;;;10.27;4.80;;;;;;;15.24;100.00;75835.31;5062350;28;20037;-67
2021/08/07 05:55:30;;;;;;;9.00;5.50;;;;;;;15.32;100.00;75845.22;5062476;28;20119;-66
2021/08/07 05:57:58;;;;;;;9.00;4.33;;;;;;;15.46;100.00;75863.03;5062201;28;20157;-67
2021/08/07 06:00:24;;;;;;;8.63;5.10;;;;;;;15.61;100.00;73538.41;5062579;28;20036;-67
2021/08/07 06:02:49;;;;;;;9.70;5.07;;;;;;;15.68;100.00;66188.75;5062097;28;20024;-66
2021/08/07 06:05:15;;;;;;;8.73;4.53;;;;;;;15.81;100.00;59526.41;5061976;28;20078;-66
2021/08/07 06:07:40;;;;;;;10.83;5.17;;;;;;;16.02;100.00;51216.22;5064546;28;20481;-66
2021/08/07 06:10:07;;;;;;;8.37;4.80;;;;;;;16.10;100.00;31640.69;5065833;28;20035;-67
2021/08/07 06:12:32;;;;;;;9.27;5.13;;;;;;;16.17;100.00;25362.00;5066617;28;20043;-67
2021/08/07 06:14:58;;;;;;;8.80;4.73;;;;;;;16.26;100.00;23384.41;5065573;28;20032;-67
2021/08/07 06:17:23;;;;;;;12.87;5.03;;;;;;;16.30;100.00;24377.03;5065747;28;20036;-67
2021/08/07 06:19:49;;;;;;;8.67;4.53;;;;;;;16.44;100.00;18111.28;5065666;28;20024;-67
2021/08/07 06:22:14;;;;;;;8.20;4.30;;;;;;;16.64;100.00;5606.31;5065949;28;20035;-67
2021/08/07 06:24:40;;;;;;;8.33;4.47;;;;;;;16.81;100.00;-13887.56;5065991;28;20489;-67
2021/08/07 06:27:06;;;;;;;7.60;4.10;;;;;;;17.08;100.00;-19610.03;5065312;28;20105;-67
2021/08/07 06:29:31;;;;;;;7.23;3.83;;;;;;;17.24;100.00;-19614.22;5065333;28;20576;-67
2021/08/07 06:31:57;;;;;;;6.87;3.97;;;;;;;17.61;100.00;-19623.47;5080655;28;20031;-67
2021/08/07 06:34:22;;;;;;;10.67;4.20;;;;;;;18.18;100.00;-19638.09;5067575;28;20366;-68
2021/08/07 06:36:47;;;;;;;6.00;3.60;;;;;;;20.02;100.00;-19685.34;5065670;28;20020;-69
2021/08/07 06:39:13;;;;;;;6.15;3.15;;;;;;;21.67;100.00;-19727.31;5065472;28;20081;-69
2021/08/07 06:41:38;;;;;;;6.43;2.95;;;;;;;21.74;100.00;-19729.25;5066162;28;20535;-69
2021/08/07 06:44:04;;;;;;;5.60;2.80;;;;;;;21.41;100.00;-19720.69;5064972;28;20574;-68
2021/08/07 06:46:30;;;;;;;6.07;2.60;;;;;;;19.99;100.00;-19684.44;5065159;28;20086;-68
2021/08/07 06:48:55;;;;;;;5.15;2.83;;;;;;;18.72;100.00;-19652.16;5064298;28;20105;-68
2021/08/07 06:51:21;;;;;;;5.00;2.80;;;;;;;18.56;100.00;-19648.00;5065651;28;20028;-67
2021/08/07 06:53:46;;;;;;;7.00;2.60;;;;;;;18.60;100.00;-19649.03;5065052;28;20290;-67
2021/08/07 06:56:12;;;;;;;5.40;3.20;;;;;;;18.44;100.00;-19644.84;5064762;28;20036;-67
2021/08/07 06:58:37;;;;;;;5.63;3.60;;;;;;;18.19;100.00;-19638.34;5065521;28;20055;-67
2021/08/07 07:01:03;;;;;;;5.30;3.13;;;;;;;18.76;100.00;-19652.94;5065424;28;20051;-67
2021/08/07 07:03:28;;;;;;;7.28;3.22;;;;;;;19.61;100.00;-19674.81;5064538;28;20113;-68
2021/08/07 07:05:54;;;;;;;6.47;2.85;;;;;;;21.73;100.00;-19728.88;5065025;28;20044;-70
2021/08/07 07:08:19;;;;;;;6.80;3.03;;;;;;;21.34;100.00;-19719.00;5064609;28;20037;-69
2021/08/07 07:10:46;;;;;;;5.38;2.45;;;;;;;21.82;100.00;-19731.22;5065375;28;20051;-69
2021/08/07 07:13:12;;;;;;;5.15;2.65;;;;;;;21.48;100.00;-19722.66;5064573;28;20029;-69
2021/08/07 07:15:38;;;;;;;8.00;2.45;;;;;;;21.32;100.00;-19718.50;5065230;28;20035;-68
2021/08/07 07:18:04;;;;;;;4.50;2.40;;;;;;;20.08;100.00;-19686.91;5063139;28;20028;-68
2021/08/07 07:20:29;;;;;;;7.07;3.13;;;;;;;19.18;100.00;-19663.88;5064579;28;20079;-68
2021/08/07 07:22:55;;;;;;;6.55;2.42;;;;;;;19.84;100.00;-19680.66;5061373;28;20035;-69
2021/08/07 07:25:21;;;;;;;6.05;2.60;;;;;;;21.25;100.00;-19716.66;5064990;28;20163;-70
2021/08/07 07:27:47;;;;;;;4.95;2.72;;;;;;;21.77;100.00;-19729.91;5064391;28;20081;-70
2021/08/07 07:30:14;;;;;;;4.65;2.25;;;;;;;21.89;100.00;-19733.03;5065105;28;20078;-69
2021/08/07 07:32:40;;;;;;;4.32;2.20;;;;;;;22.73;100.00;-19754.41;5064824;28;20031;-70
2021/08/07 07:35:07;;;;;;;5.63;2.35;;;;;;;23.39;100.00;-19771.38;5064377;28;20040;-70
2021/08/07 07:37:32;;;;;;;4.15;2.20;;;;;;;22.64;100.00;-19752.09;5064226;28;20043;-69
2021/08/07 07:39:59;;;;;;;5.30;2.00;;;;;;;22.77;100.00;-19755.59;5064579;28;20020;-70
2021/08/07 07:42:24;;;;;;;4.72;2.08;;;;;;;23.88;100.00;-19783.69;5064354;28;20119;-70
2021/08/07 07:44:51;;;;;;;5.43;1.60;;;;;;;23.42;100.00;-19772.03;5064402;28;20055;-70
2021/08/07 07:47:16;;;;;;;5.07;1.60;;;;;;;21.59;100.00;-19725.50;5063954;28;20032;-69
2021/08/07 07:49:42;;;;;;;3.83;1.27;;;;;;;21.77;100.00;-19729.91;5063616;28;20028;-69
2021/08/07 07:52:07;;;;;;;3.55;1.15;;;;;;;22.69;100.00;-19753.50;5064326;28;20040;-69
2021/08/07 07:54:33;;;;;;;4.63;1.40;;;;;;;21.46;100.00;-19722.13;5064192;28;20465;-68
2021/08/07 07:56:59;;;;;;;6.63;1.52;;;;;;;20.58;100.00;-19699.66;5064510;28;20033;-68
2021/08/07 07:59:25;;;;;;;5.88;1.23;;;;;;;21.73;100.00;-19728.88;5063798;28;20185;-68
2021/08/07 08:01:50;;;;;;;3.13;1.10;;;;;;;22.19;100.00;-19740.81;5064014;28;20058;-69
2021/08/07 08:04:16;;;;;;;3.85;1.13;;;;;;;21.24;100.00;-19716.41;5063643;28;20097;-68
2021/08/07 08:06:41;;;;;;;5.40;1.35;;;;;;;20.59;100.00;-19699.91;5063958;28;20643;-67
2021/08/07 08:09:07;;;;;;;6.65;1.33;;;;;;;21.80;100.00;-19730.69;5063802;28;20048;-69
2021/08/07 08:11:32;;;;;;;3.00;1.30;;;;;;;21.92;100.00;-19733.81;5064040;28;20036;-69
2021/08/07 08:14:00;;;;;;;5.88;1.30;;;;;;;22.35;100.00;-19744.69;5061976;28;20044;-68
2021/08/07 08:16:25;;;;;;;2.95;1.25;;;;;;;22.59;98.82;-19750.78;5060809;28;20690;-69
2021/08/07 08:18:51;;;;;;;3.67;1.38;;;;;;;21.33;100.00;-19718.75;5060252;28;20111;-68
2021/08/07 08:21:17;;;;;;;5.22;1.45;;;;;;;21.21;100.00;-19715.63;5061518;28;20024;-69
2021/08/07 08:23:42;;;;;;;3.58;1.50;;;;;;;21.04;100.00;-19711.34;5060727;28;20031;-68
2021/08/07 08:26:08;;;;;;;5.47;1.50;;;;;;;20.56;100.00;-19699.00;5065226;28;20531;-68
2021/08/07 08:28:33;;;;;;;4.00;1.77;;;;;;;21.11;100.00;-19713.16;5061355;28;20036;-69
2021/08/07 08:30:59;;;;;;;4.43;1.90;;;;;;;22.15;100.00;-19739.66;5059965;28;20036;-69
2021/08/07 08:33:24;;;;;;;3.80;1.73;;;;;;;22.60;100.00;-19751.19;5060776;28;20117;-69
2021/08/07 08:35:50;;;;;;;5.20;1.80;;;;;;;22.88;96.77;-19758.31;5061065;28;20044;-70
2021/08/07 08:38:15;;;;;;;4.32;1.88;;;;;;;23.04;91.75;-19762.31;5060029;28;20671;-69
2021/08/07 08:40:41;;;;;;;4.15;2.10;;;;;;;23.69;87.65;-19778.91;5061024;28;20552;-70
2021/08/07 08:43:06;;;;;;;3.80;1.90;;;;;;;24.27;83.76;-19793.63;5069145;28;20071;-70
2021/08/07 08:45:32;;;;;;;3.65;1.80;;;;;;;25.04;77.33;-19813.28;5061153;28;20686;-70
2021/08/07 08:48:00;;;;;;;6.03;1.70;;;;;;;26.59;68.31;-19852.50;5060944;28;20028;-70
2021/08/07 08:50:30;;;;;;;3.97;1.50;;;;;;;24.10;75.14;-19789.25;5061023;28;20511;-69
2021/08/07 08:52:57;;;;;;;4.40;1.80;;;;;;;23.35;83.53;-19770.34;5061049;28;20118;-68
2021/08/07 08:55:23;;;;;;;2.72;1.50;;;;;;;23.38;88.50;-19771.13;5060988;28;20021;-68
2021/08/07 08:57:48;;;;;;;4.63;1.75;;;;;;;23.49;88.03;-19773.72;5060663;28;20089;-68
2021/08/07 09:00:14;;;;;;;4.07;1.90;;;;;;;23.33;86.80;-19769.69;5060638;28;20086;-69
2021/08/07 09:02:41;;;;;;;5.55;2.53;;;;;;;24.45;80.49;-19798.28;5061059;28;20035;-68
2021/08/07 09:05:08;;;;;;;3.08;1.58;;;;;;;22.88;94.36;-19758.31;5060419;28;20135;-67
2021/08/07 09:07:34;;;;;;;5.82;2.00;;;;;;;22.65;94.86;-19752.34;5060889;28;20028;-67
2021/08/07 09:09:59;;;;;;;5.38;2.45;;;;;;;22.25;97.43;-19742.09;5060373;28;20384;-67
2021/08/07 09:12:49;;;;;;;3.90;2.25;;;;;;;22.58;100.00;-19750.53;5058955;28;20121;-68
2021/08/07 09:15:35;;;;;;;3.50;2.10;;;;;;;23.63;93.00;-19777.34;5059777;28;20040;-68
2021/08/07 09:18:16;;;;;;;3.47;2.00;;;;;;;25.47;75.91;-19824.00;5059152;28;20435;-69
2021/08/07 09:20:47;;;;;;;4.78;1.80;;;;;;;26.13;72.70;-19840.78;5060394;28;20062;-69
2021/08/07 09:23:14;;;;;;;3.75;2.30;;;;;;;25.21;69.91;-19817.56;5055014;28;20119;-68
2021/08/07 09:25:42;;;;;;;3.20;1.90;;;;;;;23.97;82.43;-19786.13;5060691;28;20024;-69
2021/08/07 09:28:09;;;;;;;5.47;2.72;;;;;;;23.94;86.72;-19785.38;5059975;28;20044;-69
2021/08/07 09:30:40;;;;;;;4.43;2.40;;;;;;;23.63;86.04;-19777.34;5060620;28;20028;-68
2021/08/07 09:33:19;;;;;;;4.15;2.58;;;;;;;22.16;98.87;-19739.91;5059883;28;20440;-68
2021/08/07 09:35:47;;;;;;;4.97;3.60;;;;;;;21.06;100.00;-19712.00;5060025;28;20127;-68
2021/08/07 09:38:30;;;;;;;5.05;3.42;;;;;;;20.66;100.00;-19701.59;5060226;28;20029;-67
2021/08/07 09:41:06;;;;;;;6.95;3.80;;;;;;;20.76;100.00;-19704.34;5056416;28;20385;-67
2021/08/07 09:43:56;;;;;;;4.72;3.40;;;;;;;20.33;100.00;-19693.16;5059644;28;20036;-67
2021/08/07 09:46:25;;;;;;;4.68;3.00;;;;;;;20.18;100.00;-19689.38;5060754;28;20439;-67
2021/08/07 09:48:53;;;;;;;4.00;2.70;;;;;;;20.27;100.00;-19691.72;5061918;28;20082;-67
2021/08/07 09:51:33;;;;;;;4.50;2.53;;;;;;;20.42;100.00;-19695.63;5062453;28;20040;-67
2021/08/07 09:54:05;;;;;;;3.97;2.38;;;;;;;20.27;100.00;-19691.59;5062111;28;20633;-67
2021/08/07 09:57:02;;;;;;;;;;;;;;;20.50;100.00;-19697.44;5062696;28;20020;-67
2021/08/07 09:59:35;;;;;;;3.75;2.33;;;;;;;20.31;100.00;-19692.75;5027436;28;19912;-67
2021/08/07 10:02:19;;;;;;;3.03;1.90;;;;;;;20.66;100.00;-19701.72;5062026;28;20032;-67
2021/08/07 10:04:44;;;;;;;3.47;2.08;;;;;;;20.84;100.00;-19706.28;5061793;28;20145;-67
2021/08/07 10:07:10;;;;;;;3.30;1.80;;;;;;;20.72;100.00;-19703.28;5062274;28;20041;-67
2021/08/07 10:09:36;;;;;;;4.80;2.53;;;;;;;20.77;100.00;-19704.47;5062241;28;20047;-67
2021/08/07 10:12:05;;;;;;;3.15;1.98;;;;;;;20.07;100.00;-19686.66;5061813;28;20106;-67
2021/08/07 10:14:31;;;;;;;4.47;2.08;;;;;;;19.95;100.00;-19683.41;5061973;28;20652;-67
2021/08/07 10:16:59;;;;;;;3.72;2.00;;;;;;;19.97;100.00;-19683.91;5062119;28;20027;-67
2021/08/07 10:19:25;;;;;;;3.30;2.15;;;;;;;20.12;100.00;-19687.81;5061735;28;20441;-67
2021/08/07 10:21:51;;;;;;;2.92;1.92;;;;;;;20.56;100.00;-19699.13;5062207;28;20031;-68
2021/08/07 10:24:19;;;;;;;7.25;2.50;;;;;;;20.78;100.00;-19704.72;5057591;28;20468;-67
2021/08/07 10:26:50;;;;;;;59.78;15.27;;;;;;;20.66;100.00;-19701.59;5062057;28;20480;-68
2021/08/07 10:29:18;;;;;;;17.02;5.15;;;;;;;20.86;100.00;-19706.81;5061785;28;20025;-67
2021/08/07 10:31:44;;;;;;;3.58;2.20;;;;;;;20.61;100.00;-19700.44;5061978;28;20056;-68
2021/08/07 10:34:10;;;;;;;3.88;2.10;;;;;;;20.88;100.00;-19707.31;5061535;28;20021;-68
2021/08/07 10:36:37;;;;;;;4.82;2.03;;;;;;;21.42;100.00;-19721.09;5069210;28;20429;-68
2021/08/07 10:39:05;;;;;;;5.07;2.45;;;;;;;22.92;100.00;-19759.22;5061741;28;20044;-68
2021/08/07 10:41:31;;;;;;;6.18;2.05;;;;;;;22.48;96.94;-19748.06;5061871;28;20050;-68
2021/08/07 10:43:59;;;;;;;5.85;1.55;;;;;;;22.64;100.00;-19752.09;5061278;28;20036;-68
2021/08/07 10:46:25;;;;;;;3.08;1.50;;;;;;;22.17;100.00;-19740.28;5061276;28;20032;-68
2021/08/07 10:48:52;;;;;;;2.80;1.35;;;;;;;22.52;100.00;-19749.09;5060196;28;20066;-68
2021/08/07 10:51:44;;;;;;;19.00;4.43;;;;;;;21.79;100.00;-19730.56;5060946;28;20606;-67
2021/08/07 10:54:35;;;;;;;5.80;1.77;;;;;;;22.17;100.00;-19740.28;5060096;28;20033;-67
2021/08/07 10:57:01;;;;;;;4.13;1.55;;;;;;;21.46;100.00;-19722.13;5062289;28;20461;-67
2021/08/07 10:59:27;;;;;;;3.63;1.40;;;;;;;21.72;100.00;-19728.63;5064228;28;20472;-67
2021/08/07 11:01:58;;;;;;;5.68;1.70;;;;;;;21.81;100.00;-19731.09;5064477;28;20059;-67
2021/08/07 11:04:27;;;;;;;2.60;1.15;;;;;;;21.68;100.00;-19727.56;5063391;28;20396;-67
2021/08/07 11:07:05;;;;;;;3.63;1.13;;;;;;;21.24;100.00;-19716.41;5064524;28;21770;-67
2021/08/07 11:09:37;;;;;;;2.47;1.05;;;;;;;21.27;100.00;-19717.31;5064516;28;20078;-67
2021/08/07 11:12:17;;;;;;;2.70;0.98;;;;;;;21.22;100.00;-19716.03;5059044;28;20044;-67
2021/08/07 11:14:48;;;;;;;2.75;0.98;;;;;;;21.61;100.00;-19726.03;5062426;28;20016;-67
2021/08/07 11:17:34;;;;;;;2.92;0.90;;;;;;;21.35;100.00;-19719.28;5064424;28;20033;-67
2021/08/07 11:20:42;;;;;;;2.22;1.00;;;;;;;21.17;100.00;-19714.59;5064079;28;20051;-67
2021/08/07 11:23:09;;;;;;;2.42;0.90;;;;;;;21.36;100.00;-19719.53;5058792;28;20044;-67